sensor_id;sensor_type;location;lat;lon;timestamp;temperature;humidity
2453;DHT22;63678;47.994;7.854;2023-02-02T00:01:54;6.00;99.90
2453;DHT22;63678;47.994;7.854;2023-02-02T00:04:33;6.00;99.90
2453;DHT22;63678;47.994;7.854;2023-02-02T00:07:07;6.00;99.90
2453;DHT22;63678;47.994;7.854;2023-02-02T00:09:40;6.00;99.90
2453;DHT22;63678;47.994;7.854;2023-02-02T00:12:12;6.00;99.90
2453;DHT22;63678;47.994;7.854;2023-02-02T00:14:44;5.90;99.90
2453;DHT22;63678;47.994;7.854;2023-02-02T00:17:16;5.90;99.90
2453;DHT22;63678;47.994;7.854;2023-02-02T00:19:49;5.90;99.90
2453;DHT22;63678;47.994;7.854;2023-02-02T00:22:21;5.90;99.90
2453;DHT22;63678;47.994;7.854;2023-02-02T00:24:54;5.80;99.90
2453;DHT22;63678;47.994;7.854;2023-02-02T00:27:26;5.80;99.90
2453;DHT22;63678;47.994;7.854;2023-02-02T00:30:00;5.80;99.90
2453;DHT22;63678;47.994;7.854;2023-02-02T00:32:32;5.80;99.90
2453;DHT22;63678;47.994;7.854;2023-02-02T00:35:05;5.80;99.90
2453;DHT22;63678;47.994;7.854;2023-02-02T00:38:01;5.80;99.90
2453;DHT22;63678;47.994;7.854;2023-02-02T00:40:34;5.80;99.90
2453;DHT22;63678;47.994;7.854;2023-02-02T00:43:06;5.80;99.90
2453;DHT22;63678;47.994;7.854;2023-02-02T00:45:38;5.80;99.90
2453;DHT22;63678;47.994;7.854;2023-02-02T00:48:11;5.80;99.90
2453;DHT22;63678;47.994;7.854;2023-02-02T00:50:44;5.70;99.90
2453;DHT22;63678;47.994;7.854;2023-02-02T00:53:18;5.70;99.90
2453;DHT22;63678;47.994;7.854;2023-02-02T00:55:51;5.80;99.90
2453;DHT22;63678;47.994;7.854;2023-02-02T00:58:23;5.80;99.90
2453;DHT22;63678;47.994;7.854;2023-02-02T01:00:55;5.80;99.90
2453;DHT22;63678;47.994;7.854;2023-02-02T01:03:28;5.80;99.90
2453;DHT22;63678;47.994;7.854;2023-02-02T01:06:00;5.80;99.90
2453;DHT22;63678;47.994;7.854;2023-02-02T01:08:33;5.80;99.90
2453;DHT22;63678;47.994;7.854;2023-02-02T01:11:06;5.70;99.90
2453;DHT22;63678;47.994;7.854;2023-02-02T01:16:11;5.80;99.90
2453;DHT22;63678;47.994;7.854;2023-02-02T01:18:44;5.70;99.90
2453;DHT22;63678;47.994;7.854;2023-02-02T01:21:16;5.70;99.90
2453;DHT22;63678;47.994;7.854;2023-02-02T01:26:22;5.70;99.90
2453;DHT22;63678;47.994;7.854;2023-02-02T01:28:54;5.70;99.90
2453;DHT22;63678;47.994;7.854;2023-02-02T01:31:26;5.70;99.90
2453;DHT22;63678;47.994;7.854;2023-02-02T01:33:59;5.70;99.90
2453;DHT22;63678;47.994;7.854;2023-02-02T01:36:34;5.70;99.90
2453;DHT22;63678;47.994;7.854;2023-02-02T01:39:06;5.80;99.90
2453;DHT22;63678;47.994;7.854;2023-02-02T01:41:39;5.70;99.90
2453;DHT22;63678;47.994;7.854;2023-02-02T01:47:51;5.70;99.90
2453;DHT22;63678;47.994;7.854;2023-02-02T01:50:30;5.70;99.90
2453;DHT22;63678;47.994;7.854;2023-02-02T01:53:05;5.70;99.90
2453;DHT22;63678;47.994;7.854;2023-02-02T01:55:39;5.60;99.90
2453;DHT22;63678;47.994;7.854;2023-02-02T01:58:22;5.70;99.90
2453;DHT22;63678;47.994;7.854;2023-02-02T02:00:58;5.70;99.90
2453;DHT22;63678;47.994;7.854;2023-02-02T02:03:32;5.70;99.90
2453;DHT22;63678;47.994;7.854;2023-02-02T02:06:09;5.70;99.90
2453;DHT22;63678;47.994;7.854;2023-02-02T02:08:58;5.80;99.90
2453;DHT22;63678;47.994;7.854;2023-02-02T02:11:35;5.80;99.90
2453;DHT22;63678;47.994;7.854;2023-02-02T02:14:09;5.80;99.90
2453;DHT22;63678;47.994;7.854;2023-02-02T02:27:29;5.80;99.90
2453;DHT22;63678;47.994;7.854;2023-02-02T02:30:40;5.90;99.90
2453;DHT22;63678;47.994;7.854;2023-02-02T02:36:04;5.90;99.90
2453;DHT22;63678;47.994;7.854;2023-02-02T02:38:58;5.90;99.90
2453;DHT22;63678;47.994;7.854;2023-02-02T02:41:37;5.90;99.90
2453;DHT22;63678;47.994;7.854;2023-02-02T02:44:16;5.90;99.90
2453;DHT22;63678;47.994;7.854;2023-02-02T02:46:50;5.90;99.90
2453;DHT22;63678;47.994;7.854;2023-02-02T02:49:23;5.90;99.90
2453;DHT22;63678;47.994;7.854;2023-02-02T02:51:56;5.90;99.90
2453;DHT22;63678;47.994;7.854;2023-02-02T02:54:35;5.90;99.90
2453;DHT22;63678;47.994;7.854;2023-02-02T02:57:33;5.90;99.90
2453;DHT22;63678;47.994;7.854;2023-02-02T03:03:39;5.80;99.90
2453;DHT22;63678;47.994;7.854;2023-02-02T03:06:20;5.90;99.90
2453;DHT22;63678;47.994;7.854;2023-02-02T03:09:02;5.90;99.90
2453;DHT22;63678;47.994;7.854;2023-02-02T03:11:37;5.90;99.90
2453;DHT22;63678;47.994;7.854;2023-02-02T03:14:09;5.90;99.90
2453;DHT22;63678;47.994;7.854;2023-02-02T03:16:42;5.90;99.90
2453;DHT22;63678;47.994;7.854;2023-02-02T03:19:14;5.90;99.90
2453;DHT22;63678;47.994;7.854;2023-02-02T03:21:46;5.90;99.90
2453;DHT22;63678;47.994;7.854;2023-02-02T03:24:19;6.00;99.90
2453;DHT22;63678;47.994;7.854;2023-02-02T03:26:51;6.00;99.90
2453;DHT22;63678;47.994;7.854;2023-02-02T03:29:24;5.90;99.90
2453;DHT22;63678;47.994;7.854;2023-02-02T03:31:56;5.90;99.90
2453;DHT22;63678;47.994;7.854;2023-02-02T03:34:29;5.90;99.90
2453;DHT22;63678;47.994;7.854;2023-02-02T03:37:01;5.90;99.90
2453;DHT22;63678;47.994;7.854;2023-02-02T03:39:33;5.90;99.90
2453;DHT22;63678;47.994;7.854;2023-02-02T03:42:06;6.00;99.90
2453;DHT22;63678;47.994;7.854;2023-02-02T03:44:39;5.90;99.90
2453;DHT22;63678;47.994;7.854;2023-02-02T03:47:11;5.90;99.90
2453;DHT22;63678;47.994;7.854;2023-02-02T03:49:43;5.90;99.90
2453;DHT22;63678;47.994;7.854;2023-02-02T03:52:16;5.90;99.90
2453;DHT22;63678;47.994;7.854;2023-02-02T03:54:48;5.90;99.90
2453;DHT22;63678;47.994;7.854;2023-02-02T03:57:20;5.90;99.90
2453;DHT22;63678;47.994;7.854;2023-02-02T03:59:53;5.90;99.90
2453;DHT22;63678;47.994;7.854;2023-02-02T04:04:58;5.90;99.90
2453;DHT22;63678;47.994;7.854;2023-02-02T04:07:30;5.90;99.90
2453;DHT22;63678;47.994;7.854;2023-02-02T04:10:03;5.90;99.90
2453;DHT22;63678;47.994;7.854;2023-02-02T04:15:09;6.00;99.90
2453;DHT22;63678;47.994;7.854;2023-02-02T04:17:41;6.00;99.90
2453;DHT22;63678;47.994;7.854;2023-02-02T04:20:14;6.00;99.90
2453;DHT22;63678;47.994;7.854;2023-02-02T04:22:47;6.00;99.90
2453;DHT22;63678;47.994;7.854;2023-02-02T04:27:52;6.00;99.90
2453;DHT22;63678;47.994;7.854;2023-02-02T04:30:25;6.00;99.90
2453;DHT22;63678;47.994;7.854;2023-02-02T04:32:59;6.00;99.90
2453;DHT22;63678;47.994;7.854;2023-02-02T04:35:32;6.00;99.90
2453;DHT22;63678;47.994;7.854;2023-02-02T04:38:04;6.00;99.90
2453;DHT22;63678;47.994;7.854;2023-02-02T04:40:39;6.00;99.90
2453;DHT22;63678;47.994;7.854;2023-02-02T04:43:12;6.00;99.90
2453;DHT22;63678;47.994;7.854;2023-02-02T04:45:44;6.00;99.90
2453;DHT22;63678;47.994;7.854;2023-02-02T04:48:17;6.00;99.90
2453;DHT22;63678;47.994;7.854;2023-02-02T04:50:49;6.00;99.90
2453;DHT22;63678;47.994;7.854;2023-02-02T04:55:55;6.00;99.90
2453;DHT22;63678;47.994;7.854;2023-02-02T04:58:27;6.00;99.90
2453;DHT22;63678;47.994;7.854;2023-02-02T05:03:31;6.00;99.90
2453;DHT22;63678;47.994;7.854;2023-02-02T05:06:04;6.00;99.90
2453;DHT22;63678;47.994;7.854;2023-02-02T05:08:37;6.10;99.90
2453;DHT22;63678;47.994;7.854;2023-02-02T05:11:19;6.20;99.90
2453;DHT22;63678;47.994;7.854;2023-02-02T05:13:54;6.20;99.90
2453;DHT22;63678;47.994;7.854;2023-02-02T05:19:00;6.10;99.90
2453;DHT22;63678;47.994;7.854;2023-02-02T05:21:32;6.10;99.90
2453;DHT22;63678;47.994;7.854;2023-02-02T05:24:05;6.00;99.90
2453;DHT22;63678;47.994;7.854;2023-02-02T05:26:38;6.00;99.90
2453;DHT22;63678;47.994;7.854;2023-02-02T05:29:10;6.00;99.90
2453;DHT22;63678;47.994;7.854;2023-02-02T05:31:42;6.00;99.90
2453;DHT22;63678;47.994;7.854;2023-02-02T05:34:15;6.00;99.90
2453;DHT22;63678;47.994;7.854;2023-02-02T05:36:47;6.00;99.90
2453;DHT22;63678;47.994;7.854;2023-02-02T05:39:20;6.00;99.90
2453;DHT22;63678;47.994;7.854;2023-02-02T05:41:52;6.00;99.90
2453;DHT22;63678;47.994;7.854;2023-02-02T05:44:24;6.00;99.90
2453;DHT22;63678;47.994;7.854;2023-02-02T05:46:57;6.00;99.90
2453;DHT22;63678;47.994;7.854;2023-02-02T05:49:29;6.00;99.90
2453;DHT22;63678;47.994;7.854;2023-02-02T05:52:01;6.00;99.90
2453;DHT22;63678;47.994;7.854;2023-02-02T05:54:34;6.00;99.90
2453;DHT22;63678;47.994;7.854;2023-02-02T05:57:06;6.00;99.90
2453;DHT22;63678;47.994;7.854;2023-02-02T06:02:11;6.00;99.90
2453;DHT22;63678;47.994;7.854;2023-02-02T06:04:44;6.00;99.90
2453;DHT22;63678;47.994;7.854;2023-02-02T06:07:16;6.00;99.90
2453;DHT22;63678;47.994;7.854;2023-02-02T06:09:48;6.00;99.90
2453;DHT22;63678;47.994;7.854;2023-02-02T06:12:21;6.00;99.90
2453;DHT22;63678;47.994;7.854;2023-02-02T06:14:53;6.00;99.90
2453;DHT22;63678;47.994;7.854;2023-02-02T06:19:58;6.00;99.90
2453;DHT22;63678;47.994;7.854;2023-02-02T06:22:31;6.10;99.90
2453;DHT22;63678;47.994;7.854;2023-02-02T06:25:05;6.20;99.90
2453;DHT22;63678;47.994;7.854;2023-02-02T06:27:40;6.10;99.90
2453;DHT22;63678;47.994;7.854;2023-02-02T06:30:12;6.20;99.90
2453;DHT22;63678;47.994;7.854;2023-02-02T06:32:45;6.20;99.90
2453;DHT22;63678;47.994;7.854;2023-02-02T06:35:18;6.20;99.90
2453;DHT22;63678;47.994;7.854;2023-02-02T06:37:50;6.20;99.90
2453;DHT22;63678;47.994;7.854;2023-02-02T06:40:24;6.20;99.90
2453;DHT22;63678;47.994;7.854;2023-02-02T06:43:01;6.20;99.90
2453;DHT22;63678;47.994;7.854;2023-02-02T06:48:12;6.10;99.90
2453;DHT22;63678;47.994;7.854;2023-02-02T06:55:59;6.20;99.90
2453;DHT22;63678;47.994;7.854;2023-02-02T06:58:33;6.10;99.90
2453;DHT22;63678;47.994;7.854;2023-02-02T07:01:09;6.10;99.90
2453;DHT22;63678;47.994;7.854;2023-02-02T07:03:47;6.10;99.90
2453;DHT22;63678;47.994;7.854;2023-02-02T07:06:26;6.20;99.90
2453;DHT22;63678;47.994;7.854;2023-02-02T07:09:00;6.20;99.90
2453;DHT22;63678;47.994;7.854;2023-02-02T07:11:34;6.20;99.90
2453;DHT22;63678;47.994;7.854;2023-02-02T07:14:12;6.20;99.90
2453;DHT22;63678;47.994;7.854;2023-02-02T07:16:45;6.20;99.90
2453;DHT22;63678;47.994;7.854;2023-02-02T07:19:17;6.20;99.90
2453;DHT22;63678;47.994;7.854;2023-02-02T07:21:50;6.20;99.90
2453;DHT22;63678;47.994;7.854;2023-02-02T07:26:55;6.20;99.90
2453;DHT22;63678;47.994;7.854;2023-02-02T07:32:02;6.10;99.90
2453;DHT22;63678;47.994;7.854;2023-02-02T07:34:38;6.20;99.90
2453;DHT22;63678;47.994;7.854;2023-02-02T07:37:10;6.20;99.90
2453;DHT22;63678;47.994;7.854;2023-02-02T07:39:43;6.20;99.90
2453;DHT22;63678;47.994;7.854;2023-02-02T07:42:18;6.20;99.90
2453;DHT22;63678;47.994;7.854;2023-02-02T07:44:50;6.10;99.90
2453;DHT22;63678;47.994;7.854;2023-02-02T07:47:26;6.20;99.90
2453;DHT22;63678;47.994;7.854;2023-02-02T07:49:58;6.20;99.90
2453;DHT22;63678;47.994;7.854;2023-02-02T07:52:30;6.20;99.90
2453;DHT22;63678;47.994;7.854;2023-02-02T07:55:03;6.20;99.90
2453;DHT22;63678;47.994;7.854;2023-02-02T07:57:50;6.20;99.90
2453;DHT22;63678;47.994;7.854;2023-02-02T08:00:24;6.20;99.90
2453;DHT22;63678;47.994;7.854;2023-02-02T08:03:19;6.20;99.90
2453;DHT22;63678;47.994;7.854;2023-02-02T08:08:26;6.20;99.90
2453;DHT22;63678;47.994;7.854;2023-02-02T08:10:58;6.20;99.90
2453;DHT22;63678;47.994;7.854;2023-02-02T08:13:31;6.20;99.90
2453;DHT22;63678;47.994;7.854;2023-02-02T08:16:04;6.20;99.90
2453;DHT22;63678;47.994;7.854;2023-02-02T08:18:38;6.20;99.90
2453;DHT22;63678;47.994;7.854;2023-02-02T08:21:11;6.30;99.90
2453;DHT22;63678;47.994;7.854;2023-02-02T08:23:44;6.30;99.90
2453;DHT22;63678;47.994;7.854;2023-02-02T08:26:22;6.40;99.90
2453;DHT22;63678;47.994;7.854;2023-02-02T08:29:02;6.40;99.90
2453;DHT22;63678;47.994;7.854;2023-02-02T08:31:38;6.40;99.90
2453;DHT22;63678;47.994;7.854;2023-02-02T08:36:47;6.50;99.90
2453;DHT22;63678;47.994;7.854;2023-02-02T08:41:54;6.60;99.90
2453;DHT22;63678;47.994;7.854;2023-02-02T08:44:28;6.50;99.90
2453;DHT22;63678;47.994;7.854;2023-02-02T08:54:59;6.60;99.90
2453;DHT22;63678;47.994;7.854;2023-02-02T09:02:38;6.60;99.90
2453;DHT22;63678;47.994;7.854;2023-02-02T09:05:11;6.70;99.90
2453;DHT22;63678;47.994;7.854;2023-02-02T09:07:43;6.70;99.90
2453;DHT22;63678;47.994;7.854;2023-02-02T09:10:19;6.70;99.90
2453;DHT22;63678;47.994;7.854;2023-02-02T09:15:24;6.70;99.90
2453;DHT22;63678;47.994;7.854;2023-02-02T09:17:57;6.70;99.90
2453;DHT22;63678;47.994;7.854;2023-02-02T09:20:30;6.70;99.90
2453;DHT22;63678;47.994;7.854;2023-02-02T09:23:02;6.80;99.90
2453;DHT22;63678;47.994;7.854;2023-02-02T09:28:11;6.80;99.90
2453;DHT22;63678;47.994;7.854;2023-02-02T09:30:43;6.80;99.90
2453;DHT22;63678;47.994;7.854;2023-02-02T09:33:16;6.90;99.90
2453;DHT22;63678;47.994;7.854;2023-02-02T09:35:48;6.80;99.90
2453;DHT22;63678;47.994;7.854;2023-02-02T09:38:20;6.70;99.90
2453;DHT22;63678;47.994;7.854;2023-02-02T09:40:53;6.80;99.90
2453;DHT22;63678;47.994;7.854;2023-02-02T09:43:40;6.90;99.90
2453;DHT22;63678;47.994;7.854;2023-02-02T09:46:22;6.80;99.90
2453;DHT22;63678;47.994;7.854;2023-02-02T09:49:25;6.90;99.90
2453;DHT22;63678;47.994;7.854;2023-02-02T09:52:17;6.80;99.90
2453;DHT22;63678;47.994;7.854;2023-02-02T09:55:11;6.80;99.90
2453;DHT22;63678;47.994;7.854;2023-02-02T09:57:54;6.80;99.90
2453;DHT22;63678;47.994;7.854;2023-02-02T10:00:34;6.80;99.90
2453;DHT22;63678;47.994;7.854;2023-02-02T10:03:20;6.80;99.90
2453;DHT22;63678;47.994;7.854;2023-02-02T10:06:04;9.00;99.90
2453;DHT22;63678;47.994;7.854;2023-02-02T10:08:51;6.80;99.90
2453;DHT22;63678;47.994;7.854;2023-02-02T10:15:36;6.80;99.90
2453;DHT22;63678;47.994;7.854;2023-02-02T10:18:22;6.80;99.90
2453;DHT22;63678;47.994;7.854;2023-02-02T10:21:17;6.70;99.90
2453;DHT22;63678;47.994;7.854;2023-02-02T10:24:02;6.80;99.90
2453;DHT22;63678;47.994;7.854;2023-02-02T10:26:44;6.80;99.90
2453;DHT22;63678;47.994;7.854;2023-02-02T10:46:53;6.80;99.90
2453;DHT22;63678;47.994;7.854;2023-02-02T10:49:33;6.80;99.90
2453;DHT22;63678;47.994;7.854;2023-02-02T10:52:16;6.90;99.90
2453;DHT22;63678;47.994;7.854;2023-02-02T10:54:57;6.90;99.90
2453;DHT22;63678;47.994;7.854;2023-02-02T11:03:19;6.80;99.90
2453;DHT22;63678;47.994;7.854;2023-02-02T11:05:53;6.90;99.90
2453;DHT22;63678;47.994;7.854;2023-02-02T11:08:49;6.90;99.90
2453;DHT22;63678;47.994;7.854;2023-02-02T11:11:38;7.00;99.90
2453;DHT22;63678;47.994;7.854;2023-02-02T11:14:23;7.00;99.90
2453;DHT22;63678;47.994;7.854;2023-02-02T11:17:22;6.90;99.90
2453;DHT22;63678;47.994;7.854;2023-02-02T11:22:33;7.10;99.90
2453;DHT22;63678;47.994;7.854;2023-02-02T11:25:36;7.00;99.90
2453;DHT22;63678;47.994;7.854;2023-02-02T11:28:20;7.10;99.90
2453;DHT22;63678;47.994;7.854;2023-02-02T11:30:56;7.00;99.90
2453;DHT22;63678;47.994;7.854;2023-02-02T11:33:33;7.10;99.90
2453;DHT22;63678;47.994;7.854;2023-02-02T11:36:20;7.20;99.90
2453;DHT22;63678;47.994;7.854;2023-02-02T11:39:19;7.20;99.90
2453;DHT22;63678;47.994;7.854;2023-02-02T11:42:22;7.30;99.90
2453;DHT22;63678;47.994;7.854;2023-02-02T11:44:58;7.30;99.90
2453;DHT22;63678;47.994;7.854;2023-02-02T11:47:31;7.40;99.90
2453;DHT22;63678;47.994;7.854;2023-02-02T11:50:06;7.30;99.90
2453;DHT22;63678;47.994;7.854;2023-02-02T11:52:57;7.40;99.90
2453;DHT22;63678;47.994;7.854;2023-02-02T11:55:30;7.30;99.90
2453;DHT22;63678;47.994;7.854;2023-02-02T11:58:19;7.40;99.90
2453;DHT22;63678;47.994;7.854;2023-02-02T12:01:00;7.30;99.90
2453;DHT22;63678;47.994;7.854;2023-02-02T12:03:36;7.40;99.90
2453;DHT22;63678;47.994;7.854;2023-02-02T12:08:59;7.40;99.90
2453;DHT22;63678;47.994;7.854;2023-02-02T12:17:38;7.50;99.90
2453;DHT22;63678;47.994;7.854;2023-02-02T12:20:34;7.50;99.90
2453;DHT22;63678;47.994;7.854;2023-02-02T12:23:50;7.50;99.90
2453;DHT22;63678;47.994;7.854;2023-02-02T12:26:36;9.70;99.90
2453;DHT22;63678;47.994;7.854;2023-02-02T12:32:40;7.30;99.90
2453;DHT22;63678;47.994;7.854;2023-02-02T12:38:13;7.50;99.90
2453;DHT22;63678;47.994;7.854;2023-02-02T12:50:27;7.50;99.90
2453;DHT22;63678;47.994;7.854;2023-02-02T12:54:08;7.40;99.90
2453;DHT22;63678;47.994;7.854;2023-02-02T12:56:49;7.30;99.90
2453;DHT22;63678;47.994;7.854;2023-02-02T13:02:37;7.30;99.90
2453;DHT22;63678;47.994;7.854;2023-02-02T13:08:50;7.30;99.90
2453;DHT22;63678;47.994;7.854;2023-02-02T13:11:55;7.30;99.90
2453;DHT22;63678;47.994;7.854;2023-02-02T13:17:38;7.30;99.90
2453;DHT22;63678;47.994;7.854;2023-02-02T13:22:59;7.30;99.90
2453;DHT22;63678;47.994;7.854;2023-02-02T13:25:47;7.30;99.90
2453;DHT22;63678;47.994;7.854;2023-02-02T13:28:42;7.30;99.90
2453;DHT22;63678;47.994;7.854;2023-02-02T13:31:27;7.30;99.90
2453;DHT22;63678;47.994;7.854;2023-02-02T13:37:19;7.30;99.90
2453;DHT22;63678;47.994;7.854;2023-02-02T13:40:13;7.40;99.90
2453;DHT22;63678;47.994;7.854;2023-02-02T13:43:33;7.40;99.90
2453;DHT22;63678;47.994;7.854;2023-02-02T13:49:28;7.40;99.90
2453;DHT22;63678;47.994;7.854;2023-02-02T14:01:43;7.40;99.90
2453;DHT22;63678;47.994;7.854;2023-02-02T14:04:24;7.40;99.90
2453;DHT22;63678;47.994;7.854;2023-02-02T14:06:59;7.30;99.90
2453;DHT22;63678;47.994;7.854;2023-02-02T14:09:36;7.30;99.90
2453;DHT22;63678;47.994;7.854;2023-02-02T14:12:09;7.30;99.90
2453;DHT22;63678;47.994;7.854;2023-02-02T14:14:45;7.30;99.90
2453;DHT22;63678;47.994;7.854;2023-02-02T14:20:00;7.10;99.90
2453;DHT22;63678;47.994;7.854;2023-02-02T14:22:48;7.10;99.90
2453;DHT22;63678;47.994;7.854;2023-02-02T14:28:46;7.10;99.90
2453;DHT22;63678;47.994;7.854;2023-02-02T14:37:33;7.10;99.90
2453;DHT22;63678;47.994;7.854;2023-02-02T14:43:13;7.20;99.90
2453;DHT22;63678;47.994;7.854;2023-02-02T14:51:30;7.30;99.90
2453;DHT22;63678;47.994;7.854;2023-02-02T14:54:05;7.30;99.90
2453;DHT22;63678;47.994;7.854;2023-02-02T14:59:28;7.30;99.90
2453;DHT22;63678;47.994;7.854;2023-02-02T15:04:38;7.40;99.90
2453;DHT22;63678;47.994;7.854;2023-02-02T15:07:34;7.50;99.90
2453;DHT22;63678;47.994;7.854;2023-02-02T15:10:08;7.50;99.90
2453;DHT22;63678;47.994;7.854;2023-02-02T15:12:44;7.50;99.90
2453;DHT22;63678;47.994;7.854;2023-02-02T15:15:21;7.50;99.90
2453;DHT22;63678;47.994;7.854;2023-02-02T15:18:14;7.60;99.90
2453;DHT22;63678;47.994;7.854;2023-02-02T15:20:50;7.60;99.90
2453;DHT22;63678;47.994;7.854;2023-02-02T15:23:37;7.60;99.90
2453;DHT22;63678;47.994;7.854;2023-02-02T15:29:15;7.70;99.90
2453;DHT22;63678;47.994;7.854;2023-02-02T15:31:52;7.70;99.90
2453;DHT22;63678;47.994;7.854;2023-02-02T15:37:17;7.70;99.90
2453;DHT22;63678;47.994;7.854;2023-02-02T15:39:55;7.70;99.90
2453;DHT22;63678;47.994;7.854;2023-02-02T15:42:44;7.70;99.90
2453;DHT22;63678;47.994;7.854;2023-02-02T15:47:59;7.80;99.90
2453;DHT22;63678;47.994;7.854;2023-02-02T15:50:32;7.70;99.90
2453;DHT22;63678;47.994;7.854;2023-02-02T15:53:05;7.80;99.90
2453;DHT22;63678;47.994;7.854;2023-02-02T15:55:37;7.80;99.90
2453;DHT22;63678;47.994;7.854;2023-02-02T15:58:32;7.80;99.90
2453;DHT22;63678;47.994;7.854;2023-02-02T16:01:29;7.80;99.90
2453;DHT22;63678;47.994;7.854;2023-02-02T16:06:55;7.80;99.90
2453;DHT22;63678;47.994;7.854;2023-02-02T16:09:32;7.80;99.90
2453;DHT22;63678;47.994;7.854;2023-02-02T16:15:03;7.90;99.90
2453;DHT22;63678;47.994;7.854;2023-02-02T16:18:04;7.80;99.90
2453;DHT22;63678;47.994;7.854;2023-02-02T16:20:42;7.90;99.90
2453;DHT22;63678;47.994;7.854;2023-02-02T16:23:25;7.90;99.90
2453;DHT22;63678;47.994;7.854;2023-02-02T16:26:02;7.90;99.90
2453;DHT22;63678;47.994;7.854;2023-02-02T16:28:36;7.90;99.90
2453;DHT22;63678;47.994;7.854;2023-02-02T16:31:08;7.90;99.90
2453;DHT22;63678;47.994;7.854;2023-02-02T16:33:43;7.90;99.90
2453;DHT22;63678;47.994;7.854;2023-02-02T16:38:57;7.90;99.90
2453;DHT22;63678;47.994;7.854;2023-02-02T16:41:32;8.00;99.90
2453;DHT22;63678;47.994;7.854;2023-02-02T16:44:29;8.00;99.90
2453;DHT22;63678;47.994;7.854;2023-02-02T16:47:29;8.00;99.90
2453;DHT22;63678;47.994;7.854;2023-02-02T16:53:01;8.00;99.90
2453;DHT22;63678;47.994;7.854;2023-02-02T16:55:34;8.00;99.90
2453;DHT22;63678;47.994;7.854;2023-02-02T16:58:22;8.00;99.90
2453;DHT22;63678;47.994;7.854;2023-02-02T17:01:08;8.00;99.90
2453;DHT22;63678;47.994;7.854;2023-02-02T17:03:51;8.00;99.90
2453;DHT22;63678;47.994;7.854;2023-02-02T17:06:28;8.00;99.90
2453;DHT22;63678;47.994;7.854;2023-02-02T17:09:34;8.00;99.90
2453;DHT22;63678;47.994;7.854;2023-02-02T17:17:51;8.00;99.90
2453;DHT22;63678;47.994;7.854;2023-02-02T17:20:25;8.00;99.90
2453;DHT22;63678;47.994;7.854;2023-02-02T17:23:01;8.00;99.90
2453;DHT22;63678;47.994;7.854;2023-02-02T17:25:40;8.00;99.90
2453;DHT22;63678;47.994;7.854;2023-02-02T17:28:16;8.00;99.90
2453;DHT22;63678;47.994;7.854;2023-02-02T17:31:04;8.00;99.90
2453;DHT22;63678;47.994;7.854;2023-02-02T17:33:39;8.00;99.90
2453;DHT22;63678;47.994;7.854;2023-02-02T17:41:17;7.90;99.90
2453;DHT22;63678;47.994;7.854;2023-02-02T17:48:56;7.80;99.90
2453;DHT22;63678;47.994;7.854;2023-02-02T17:51:30;7.80;99.90
2453;DHT22;63678;47.994;7.854;2023-02-02T17:54:09;7.70;99.90
2453;DHT22;63678;47.994;7.854;2023-02-02T17:59:15;7.60;99.90
2453;DHT22;63678;47.994;7.854;2023-02-02T18:01:50;7.60;99.90
2453;DHT22;63678;47.994;7.854;2023-02-02T18:04:23;7.80;99.90
2453;DHT22;63678;47.994;7.854;2023-02-02T18:06:57;7.60;99.90
2453;DHT22;63678;47.994;7.854;2023-02-02T18:09:29;7.60;99.90
2453;DHT22;63678;47.994;7.854;2023-02-02T18:12:05;7.60;99.90
2453;DHT22;63678;47.994;7.854;2023-02-02T18:14:37;7.60;99.90
2453;DHT22;63678;47.994;7.854;2023-02-02T18:17:09;7.60;99.90
2453;DHT22;63678;47.994;7.854;2023-02-02T18:22:16;7.60;99.90
2453;DHT22;63678;47.994;7.854;2023-02-02T18:24:49;7.60;99.90
2453;DHT22;63678;47.994;7.854;2023-02-02T18:32:27;7.60;99.90
2453;DHT22;63678;47.994;7.854;2023-02-02T18:37:32;7.50;99.90
2453;DHT22;63678;47.994;7.854;2023-02-02T18:40:04;7.50;99.90
2453;DHT22;63678;47.994;7.854;2023-02-02T18:45:11;7.50;99.90
2453;DHT22;63678;47.994;7.854;2023-02-02T18:47:44;7.50;99.90
2453;DHT22;63678;47.994;7.854;2023-02-02T18:50:16;7.50;99.90
2453;DHT22;63678;47.994;7.854;2023-02-02T18:52:49;7.50;99.90
2453;DHT22;63678;47.994;7.854;2023-02-02T18:55:22;7.50;99.90
2453;DHT22;63678;47.994;7.854;2023-02-02T18:57:55;7.50;99.90
2453;DHT22;63678;47.994;7.854;2023-02-02T19:00:27;7.50;99.90
2453;DHT22;63678;47.994;7.854;2023-02-02T19:03:00;7.50;99.90
2453;DHT22;63678;47.994;7.854;2023-02-02T19:05:33;7.50;99.90
2453;DHT22;63678;47.994;7.854;2023-02-02T19:08:25;7.50;99.90
2453;DHT22;63678;47.994;7.854;2023-02-02T19:10:59;7.40;99.90
2453;DHT22;63678;47.994;7.854;2023-02-02T19:13:33;7.40;99.90
2453;DHT22;63678;47.994;7.854;2023-02-02T19:18:57;7.40;99.90
2453;DHT22;63678;47.994;7.854;2023-02-02T19:24:10;7.40;99.90
2453;DHT22;63678;47.994;7.854;2023-02-02T19:26:45;7.30;99.90
2453;DHT22;63678;47.994;7.854;2023-02-02T19:29:22;7.40;99.90
2453;DHT22;63678;47.994;7.854;2023-02-02T19:31:59;7.40;99.90
2453;DHT22;63678;47.994;7.854;2023-02-02T19:34:34;7.40;99.90
2453;DHT22;63678;47.994;7.854;2023-02-02T19:37:21;7.30;99.90
2453;DHT22;63678;47.994;7.854;2023-02-02T19:40:16;7.30;99.90
2453;DHT22;63678;47.994;7.854;2023-02-02T19:42:55;7.30;99.90
2453;DHT22;63678;47.994;7.854;2023-02-02T19:45:31;7.30;99.90
2453;DHT22;63678;47.994;7.854;2023-02-02T19:48:40;7.30;99.90
2453;DHT22;63678;47.994;7.854;2023-02-02T19:54:24;7.20;99.90
2453;DHT22;63678;47.994;7.854;2023-02-02T19:57:00;7.20;99.90
2453;DHT22;63678;47.994;7.854;2023-02-02T19:59:37;7.20;99.90
2453;DHT22;63678;47.994;7.854;2023-02-02T20:07:42;7.20;99.90
2453;DHT22;63678;47.994;7.854;2023-02-02T20:10:22;7.20;99.90
2453;DHT22;63678;47.994;7.854;2023-02-02T20:13:00;7.20;99.90
2453;DHT22;63678;47.994;7.854;2023-02-02T20:15:42;7.20;99.90
2453;DHT22;63678;47.994;7.854;2023-02-02T20:18:18;7.20;99.90
2453;DHT22;63678;47.994;7.854;2023-02-02T20:20:56;7.20;99.90
2453;DHT22;63678;47.994;7.854;2023-02-02T20:23:35;7.20;99.90
2453;DHT22;63678;47.994;7.854;2023-02-02T20:26:25;7.20;99.90
2453;DHT22;63678;47.994;7.854;2023-02-02T20:31:53;7.20;99.90
2453;DHT22;63678;47.994;7.854;2023-02-02T20:37:22;7.10;99.90
2453;DHT22;63678;47.994;7.854;2023-02-02T20:40:04;7.10;99.90
2453;DHT22;63678;47.994;7.854;2023-02-02T20:42:38;7.00;99.90
2453;DHT22;63678;47.994;7.854;2023-02-02T20:45:12;7.10;99.90
2453;DHT22;63678;47.994;7.854;2023-02-02T20:47:45;7.00;99.90
2453;DHT22;63678;47.994;7.854;2023-02-02T20:50:19;7.00;99.90
2453;DHT22;63678;47.994;7.854;2023-02-02T20:55:26;7.00;99.90
2453;DHT22;63678;47.994;7.854;2023-02-02T20:57:59;7.00;99.90
2453;DHT22;63678;47.994;7.854;2023-02-02T21:00:31;7.10;99.90
2453;DHT22;63678;47.994;7.854;2023-02-02T21:05:36;7.10;99.90
2453;DHT22;63678;47.994;7.854;2023-02-02T21:08:09;7.00;99.90
2453;DHT22;63678;47.994;7.854;2023-02-02T21:10:42;7.00;99.90
2453;DHT22;63678;47.994;7.854;2023-02-02T21:18:19;7.00;99.90
2453;DHT22;63678;47.994;7.854;2023-02-02T21:23:24;7.10;99.90
2453;DHT22;63678;47.994;7.854;2023-02-02T21:25:59;7.10;99.90
2453;DHT22;63678;47.994;7.854;2023-02-02T21:28:32;6.40;99.90
2453;DHT22;63678;47.994;7.854;2023-02-02T21:31:25;7.00;99.90
2453;DHT22;63678;47.994;7.854;2023-02-02T21:33:58;7.00;99.90
2453;DHT22;63678;47.994;7.854;2023-02-02T21:36:45;7.00;99.90
2453;DHT22;63678;47.994;7.854;2023-02-02T21:39:23;7.00;99.90
2453;DHT22;63678;47.994;7.854;2023-02-02T21:42:12;7.00;99.90
2453;DHT22;63678;47.994;7.854;2023-02-02T21:47:56;7.00;99.90
2453;DHT22;63678;47.994;7.854;2023-02-02T21:50:39;7.00;99.90